Terminal Aerodrome Forecast
Issued by NWS

Current Version | Previous Version | Graphics & Text | Print | Product List | Glossary On
Versions: 1 2 3 4 5 6 7 8 9 10 11 12 13 14 15
000
FTUS41 KILN 201732
TAFLUK
TAF
KLUK 201732Z 2018/2118 22005KT P6SM SCT030 BKN080
     FM210000 VRB03KT P6SM SCT100
     FM210500 00000KT 4SM BR SCT250
     FM210700 00000KT 1SM BR FEW002 SCT250
     FM210900 00000KT 1/4SM FG VV002
     FM211300 VRB03KT 2SM BR FEW003 SCT200
     FM211400 VRB03KT P6SM FEW025 SCT200=

USA.gov is the U.S. government's official web portal to all federal, state and local government web resources and services.